createdAt,value
2022-10-18T00:04:23.447Z,29.70
2022-10-18T00:09:27.589Z,31.20
2022-10-18T00:14:30.188Z,31.00
2022-10-18T00:19:32.527Z,28.60
2022-10-18T00:24:35.334Z,28.47
2022-10-18T00:29:37.808Z,29.23
2022-10-18T00:34:40.456Z,29.23
2022-10-18T00:39:43.000Z,29.20
2022-10-18T00:44:45.320Z,31.07
2022-10-18T00:49:53.470Z,36.73
2022-10-18T00:54:56.997Z,35.90
2022-10-18T00:59:59.885Z,31.70
2022-10-18T01:05:02.211Z,32.33
2022-10-18T01:10:19.541Z,33.33
2022-10-18T01:15:31.522Z,32.23
2022-10-18T01:20:39.540Z,34.47
2022-10-18T01:26:14.008Z,35.83
2022-10-18T01:31:30.187Z,33.50
2022-10-18T01:36:39.385Z,29.23
2022-10-18T01:41:44.589Z,29.63
2022-10-18T01:46:47.639Z,28.13
2022-10-18T01:51:50.130Z,27.90
2022-10-18T01:57:01.675Z,29.00
2022-10-18T02:02:23.809Z,29.10
2022-10-18T02:07:55.298Z,27.87
2022-10-18T02:13:11.604Z,28.77
2022-10-18T02:18:23.148Z,32.43
2022-10-18T02:23:26.837Z,36.73
2022-10-18T02:28:29.805Z,45.07
2022-10-18T02:33:40.138Z,45.83
2022-10-18T02:38:44.625Z,41.40
2022-10-18T02:43:47.094Z,43.47
2022-10-18T02:48:50.110Z,48.93
2022-10-18T02:53:52.663Z,52.00
2022-10-18T02:58:55.403Z,46.67
2022-10-18T03:03:57.858Z,40.73
2022-10-18T03:09:03.123Z,37.80
2022-10-18T03:14:05.605Z,39.23
2022-10-18T03:19:08.003Z,40.80
2022-10-18T03:24:10.351Z,51.90
2022-10-18T03:29:12.930Z,61.90
2022-10-18T03:34:16.993Z,41.77
2022-10-18T03:39:19.501Z,37.33
2022-10-18T03:44:21.881Z,40.23
2022-10-18T03:49:24.489Z,36.93
2022-10-18T03:54:26.957Z,35.97
2022-10-18T03:59:29.680Z,38.90
2022-10-18T04:04:32.093Z,38.90
2022-10-18T04:09:34.528Z,37.83
2022-10-18T04:14:36.936Z,36.73
2022-10-18T04:19:41.979Z,41.63
2022-10-18T04:24:44.578Z,38.73
2022-10-18T04:29:46.994Z,39.30
2022-10-18T04:34:49.465Z,38.00
2022-10-18T04:39:53.643Z,41.07
2022-10-18T04:44:56.386Z,38.90
2022-10-18T04:49:58.828Z,45.63
2022-10-18T04:55:01.198Z,43.77
2022-10-18T05:00:04.930Z,40.87
2022-10-18T05:05:10.415Z,41.40
2022-10-18T05:10:15.810Z,41.53
2022-10-18T05:15:18.251Z,45.33
2022-10-18T05:20:20.718Z,46.00
2022-10-18T05:25:23.195Z,46.53
2022-10-18T05:30:27.077Z,42.03
2022-10-18T05:35:29.402Z,40.17
2022-10-18T05:40:38.009Z,37.83
2022-10-18T05:45:40.346Z,45.33
2022-10-18T05:50:43.020Z,46.87
2022-10-18T05:55:45.318Z,45.83
2022-10-18T06:00:47.650Z,44.37
2022-10-18T06:05:49.908Z,47.87
2022-10-18T06:10:52.270Z,44.60
2022-10-18T06:15:57.754Z,43.77
2022-10-18T06:21:03.120Z,53.47
2022-10-18T06:26:07.922Z,50.93
2022-10-18T06:31:11.824Z,48.73
2022-10-18T06:36:16.697Z,48.00
2022-10-18T06:41:19.774Z,54.97
2022-10-18T06:46:22.202Z,48.10
2022-10-18T06:51:24.599Z,45.67
2022-10-18T06:56:27.178Z,43.70
2022-10-18T07:01:30.345Z,39.50
2022-10-18T07:06:32.858Z,41.37
2022-10-18T07:11:35.383Z,38.27
2022-10-18T07:16:37.862Z,34.97
2022-10-18T07:21:40.419Z,32.70
2022-10-18T07:26:42.921Z,40.20
2022-10-18T07:31:45.406Z,33.73
2022-10-18T07:36:47.807Z,35.37
2022-10-18T07:41:50.306Z,38.00
2022-10-18T07:46:53.112Z,37.70
2022-10-18T07:51:55.668Z,38.30
2022-10-18T07:56:58.427Z,37.83
2022-10-18T08:02:00.870Z,35.70
2022-10-18T08:07:03.352Z,39.63
2022-10-18T08:12:05.953Z,36.23
2022-10-18T08:17:08.463Z,39.97
2022-10-18T08:22:10.788Z,91.00
2022-10-18T08:27:13.241Z,33.73
2022-10-18T08:32:15.638Z,35.00
2022-10-18T08:37:18.038Z,33.87
2022-10-18T08:42:31.001Z,31.13
2022-10-18T08:47:43.796Z,32.03
2022-10-18T08:52:55.098Z,31.17
2022-10-18T08:57:58.487Z,29.07
2022-10-18T09:03:38.910Z,28.87
2022-10-18T09:08:56.505Z,30.00
2022-10-18T09:14:14.104Z,28.93
2022-10-18T09:19:31.631Z,28.03
2022-10-18T09:24:48.395Z,26.17
2022-10-18T09:30:09.649Z,29.23
2022-10-18T09:35:14.970Z,29.33
2022-10-18T09:40:37.122Z,27.97
2022-10-18T09:45:46.027Z,29.63
2022-10-18T09:51:08.071Z,28.20
2022-10-18T09:56:46.565Z,28.37
2022-10-18T10:01:48.914Z,32.17
2022-10-18T10:06:54.124Z,29.17
2022-10-18T10:11:57.632Z,28.73
2022-10-18T10:17:03.681Z,29.37
2022-10-18T10:22:13.918Z,30.53
2022-10-18T10:27:43.587Z,31.10
2022-10-18T10:32:48.673Z,31.07
2022-10-18T10:37:52.669Z,31.33
2022-10-18T10:43:13.016Z,29.00
2022-10-18T10:48:23.958Z,33.33
2022-10-18T10:53:41.255Z,35.40
2022-10-18T10:58:43.659Z,34.17
2022-10-18T11:03:51.493Z,38.73
2022-10-18T11:08:54.329Z,34.13
2022-10-18T11:14:27.110Z,33.40
2022-10-18T11:19:49.137Z,38.57
2022-10-18T11:24:51.830Z,45.07
2022-10-18T11:30:13.739Z,35.57
2022-10-18T11:35:51.906Z,32.60
2022-10-18T11:41:11.918Z,31.80
2022-10-18T11:46:21.918Z,31.83
2022-10-18T11:51:56.329Z,30.60
2022-10-18T11:57:28.713Z,26.17
2022-10-18T12:02:34.175Z,21.77
2022-10-18T12:07:53.862Z,28.97
2022-10-18T12:13:03.627Z,39.17
2022-10-18T12:18:13.463Z,22.53
2022-10-18T12:23:21.648Z,16.30
2022-10-18T12:28:39.044Z,22.03
2022-10-18T12:33:48.310Z,19.23
2022-10-18T12:39:09.794Z,19.60
2022-10-18T12:44:38.559Z,18.67
2022-10-18T12:49:44.609Z,27.23
2022-10-18T12:55:08.088Z,23.43
2022-10-18T13:00:30.311Z,12.00
2022-10-18T13:05:53.340Z,10.63
2022-10-18T13:11:12.047Z,44.23
2022-10-18T13:16:26.409Z,18.70
2022-10-18T13:22:06.472Z,31.87
2022-10-18T13:27:42.428Z,19.37
2022-10-18T13:33:06.619Z,22.03
2022-10-18T13:38:31.893Z,15.80
2022-10-18T13:43:52.898Z,12.03
2022-10-18T13:49:00.478Z,9.37
2022-10-18T13:54:23.713Z,10.50
2022-10-18T14:00:15.354Z,26.23
2022-10-18T14:05:35.990Z,19.70
2022-10-18T14:11:08.032Z,15.10
2022-10-18T14:16:43.035Z,11.20
2022-10-18T14:21:53.664Z,10.73
2022-10-18T14:27:16.301Z,13.03
2022-10-18T14:32:30.443Z,32.27
2022-10-18T14:37:36.923Z,63.73
2022-10-18T14:42:48.814Z,25.33
2022-10-18T14:47:51.131Z,18.90
2022-10-18T14:52:54.258Z,40.23
2022-10-18T14:57:56.701Z,36.67
2022-10-18T15:02:59.155Z,33.43
2022-10-18T15:08:01.784Z,36.47
2022-10-18T15:13:10.229Z,39.40
2022-10-18T15:18:26.514Z,24.20
2022-10-18T15:23:32.294Z,23.40
2022-10-18T15:28:40.724Z,24.97
2022-10-18T15:33:43.134Z,37.80
2022-10-18T15:38:47.648Z,64.30
2022-10-18T15:43:52.358Z,46.00
2022-10-18T15:49:18.397Z,28.63
2022-10-18T15:54:30.551Z,38.00
2022-10-18T15:59:32.891Z,24.73
2022-10-18T16:04:37.059Z,34.13
2022-10-18T16:09:39.416Z,67.70
2022-10-18T16:14:41.797Z,186.57
2022-10-18T16:19:44.783Z,100.90
2022-10-18T16:24:47.836Z,43.20
2022-10-18T16:29:50.151Z,32.93
2022-10-18T16:34:52.475Z,40.17
2022-10-18T16:39:54.812Z,31.90
2022-10-18T16:44:58.638Z,43.77
2022-10-18T16:50:06.493Z,49.27
2022-10-18T16:55:16.336Z,46.63
2022-10-18T17:00:21.847Z,51.30
2022-10-18T17:05:24.456Z,59.37
2022-10-18T17:10:27.663Z,55.17
2022-10-18T17:15:32.825Z,52.53
2022-10-18T17:20:37.477Z,36.93
2022-10-18T17:25:57.347Z,40.43
2022-10-18T17:31:07.376Z,42.43
2022-10-18T17:36:09.731Z,30.47
2022-10-18T17:41:12.134Z,33.40
2022-10-18T17:46:14.720Z,48.47
2022-10-18T17:51:18.039Z,14.70
2022-10-18T17:56:20.357Z,11.37
2022-10-18T18:01:23.403Z,20.47
2022-10-18T18:06:31.251Z,20.13
2022-10-18T18:11:34.669Z,57.23
2022-10-18T18:16:38.894Z,28.97
2022-10-18T18:21:42.540Z,20.07
2022-10-18T18:26:44.855Z,13.97
2022-10-18T18:31:47.285Z,16.27
2022-10-18T18:36:51.949Z,13.70
2022-10-18T18:41:54.262Z,18.33
2022-10-18T18:46:58.229Z,14.60
2022-10-18T18:52:00.631Z,15.40
2022-10-18T18:57:05.305Z,16.17
2022-10-18T19:02:09.139Z,15.73
2022-10-18T19:07:11.446Z,14.60
2022-10-18T19:12:15.352Z,13.97
2022-10-18T19:17:21.690Z,15.97
2022-10-18T19:22:24.038Z,18.17
2022-10-18T19:27:26.418Z,16.07
2022-10-18T19:37:31.493Z,17.20
2022-10-18T19:42:34.547Z,17.37
2022-10-18T19:47:38.460Z,20.17
2022-10-18T19:52:40.948Z,21.53
2022-10-18T19:57:43.307Z,19.97
2022-10-18T20:02:45.660Z,19.60
2022-10-18T20:07:47.983Z,17.47
2022-10-18T20:12:50.528Z,20.37
2022-10-18T20:17:52.853Z,23.03
2022-10-18T20:22:55.248Z,22.60
2022-10-18T20:27:57.608Z,18.87
2022-10-18T20:33:00.098Z,27.90
2022-10-18T20:38:02.433Z,31.60
2022-10-18T20:43:04.796Z,25.73
2022-10-18T20:48:07.171Z,23.53
2022-10-18T20:53:09.525Z,21.83
2022-10-18T20:58:12.299Z,23.23
2022-10-18T21:03:15.109Z,21.10
2022-10-18T21:08:17.410Z,19.73
2022-10-18T21:13:19.697Z,18.53
2022-10-18T21:18:29.799Z,18.13
2022-10-18T21:23:32.153Z,20.27
2022-10-18T21:28:35.005Z,17.10
2022-10-18T21:33:37.426Z,17.13
2022-10-18T21:38:40.092Z,16.00
2022-10-18T21:43:45.000Z,16.53
2022-10-18T21:48:49.699Z,15.30
2022-10-18T21:53:54.551Z,16.50
2022-10-18T21:58:57.911Z,15.47
2022-10-18T22:04:03.472Z,14.57
2022-10-18T22:09:08.278Z,15.93
2022-10-18T22:14:11.148Z,15.03
2022-10-18T22:19:13.588Z,16.80
2022-10-18T22:24:16.237Z,17.80
2022-10-18T22:29:20.968Z,17.93
2022-10-18T22:34:29.134Z,18.27
2022-10-18T22:39:31.424Z,17.23
2022-10-18T22:44:37.049Z,16.70
2022-10-18T22:49:39.407Z,18.80
2022-10-18T22:54:42.044Z,17.87
2022-10-18T22:59:44.352Z,19.07
2022-10-18T23:04:46.698Z,17.47
2022-10-18T23:09:49.094Z,18.20
2022-10-18T23:14:51.423Z,19.67
2022-10-18T23:19:53.798Z,20.67
2022-10-18T23:24:56.086Z,17.93
2022-10-18T23:29:58.381Z,20.00
2022-10-18T23:35:00.767Z,19.67
2022-10-18T23:40:03.371Z,21.90
2022-10-18T23:45:06.405Z,21.70
2022-10-18T23:50:09.091Z,21.10
2022-10-18T23:55:11.380Z,22.40
